sensor_id;sensor_type;location;lat;lon;timestamp;noise_LAeq;noise_LA_min;noise_LA_max;noise_LA01;noise_LA95
72686;Laerm;61365;52.162;4.500;2024-03-08T00:02:14;43.11;32.98;51.23;;
72686;Laerm;61365;52.162;4.500;2024-03-08T00:04:40;43.19;33.10;50.75;;
72686;Laerm;61365;52.162;4.500;2024-03-08T00:07:06;43.11;33.22;51.92;;
72686;Laerm;61365;52.162;4.500;2024-03-08T00:09:33;43.15;33.45;52.76;;
72686;Laerm;61365;52.162;4.500;2024-03-08T00:11:59;43.15;32.98;51.00;;
72686;Laerm;61365;52.162;4.500;2024-03-08T00:14:25;43.14;34.38;51.50;;
72686;Laerm;61365;52.162;4.500;2024-03-08T00:16:51;43.33;35.89;49.93;;
72686;Laerm;61365;52.162;4.500;2024-03-08T00:19:18;43.16;32.73;51.48;;
72686;Laerm;61365;52.162;4.500;2024-03-08T00:21:44;43.27;33.53;52.20;;
72686;Laerm;61365;52.162;4.500;2024-03-08T00:24:10;43.20;33.46;49.95;;
72686;Laerm;61365;52.162;4.500;2024-03-08T00:26:38;43.25;33.21;51.62;;
72686;Laerm;61365;52.162;4.500;2024-03-08T00:29:04;43.21;32.02;49.77;;
72686;Laerm;61365;52.162;4.500;2024-03-08T00:31:30;43.29;33.34;52.90;;
72686;Laerm;61365;52.162;4.500;2024-03-08T00:33:59;43.24;33.23;51.64;;
72686;Laerm;61365;52.162;4.500;2024-03-08T00:36:25;43.26;33.23;51.14;;
72686;Laerm;61365;52.162;4.500;2024-03-08T00:38:52;43.21;32.59;51.72;;
72686;Laerm;61365;52.162;4.500;2024-03-08T00:41:18;43.16;32.55;51.69;;
72686;Laerm;61365;52.162;4.500;2024-03-08T00:43:44;43.15;33.05;51.92;;
72686;Laerm;61365;52.162;4.500;2024-03-08T00:46:14;43.36;32.96;50.46;;
72686;Laerm;61365;52.162;4.500;2024-03-08T00:48:41;43.27;34.70;49.13;;
72686;Laerm;61365;52.162;4.500;2024-03-08T00:51:09;43.33;32.77;52.05;;
72686;Laerm;61365;52.162;4.500;2024-03-08T00:53:35;43.37;32.24;50.64;;
72686;Laerm;61365;52.162;4.500;2024-03-08T00:56:01;43.35;33.65;49.86;;
72686;Laerm;61365;52.162;4.500;2024-03-08T00:58:27;43.38;32.37;51.51;;
72686;Laerm;61365;52.162;4.500;2024-03-08T01:00:54;43.46;33.68;50.69;;
72686;Laerm;61365;52.162;4.500;2024-03-08T01:03:20;43.42;35.58;49.18;;
72686;Laerm;61365;52.162;4.500;2024-03-08T01:05:47;43.32;33.25;49.34;;
72686;Laerm;61365;52.162;4.500;2024-03-08T01:08:13;43.25;33.57;52.05;;
72686;Laerm;61365;52.162;4.500;2024-03-08T01:10:39;43.33;33.53;50.44;;
72686;Laerm;61365;52.162;4.500;2024-03-08T01:13:05;43.41;32.29;51.15;;
72686;Laerm;61365;52.162;4.500;2024-03-08T01:15:31;43.38;32.65;49.14;;
72686;Laerm;61365;52.162;4.500;2024-03-08T01:17:57;43.37;32.39;49.75;;
72686;Laerm;61365;52.162;4.500;2024-03-08T01:20:24;43.39;32.24;49.75;;
72686;Laerm;61365;52.162;4.500;2024-03-08T01:22:50;43.38;35.01;49.29;;
72686;Laerm;61365;52.162;4.500;2024-03-08T01:25:16;43.37;32.56;51.79;;
72686;Laerm;61365;52.162;4.500;2024-03-08T01:27:42;43.46;32.76;51.50;;
72686;Laerm;61365;52.162;4.500;2024-03-08T01:30:09;43.34;34.40;48.54;;
72686;Laerm;61365;52.162;4.500;2024-03-08T01:32:35;43.39;32.76;49.19;;
72686;Laerm;61365;52.162;4.500;2024-03-08T01:35:01;43.43;32.81;50.14;;
72686;Laerm;61365;52.162;4.500;2024-03-08T01:37:28;43.40;32.05;49.52;;
72686;Laerm;61365;52.162;4.500;2024-03-08T01:39:55;43.46;33.11;51.95;;
72686;Laerm;61365;52.162;4.500;2024-03-08T01:42:21;43.30;32.32;49.66;;
72686;Laerm;61365;52.162;4.500;2024-03-08T01:44:48;43.44;33.36;48.78;;
72686;Laerm;61365;52.162;4.500;2024-03-08T01:47:14;43.37;31.65;50.43;;
72686;Laerm;61365;52.162;4.500;2024-03-08T01:49:40;43.46;34.63;49.30;;
72686;Laerm;61365;52.162;4.500;2024-03-08T01:52:07;43.41;32.71;49.59;;
72686;Laerm;61365;52.162;4.500;2024-03-08T01:54:34;43.34;34.12;49.89;;
72686;Laerm;61365;52.162;4.500;2024-03-08T01:57:01;43.32;33.35;49.85;;
72686;Laerm;61365;52.162;4.500;2024-03-08T01:59:27;43.33;32.21;50.20;;
72686;Laerm;61365;52.162;4.500;2024-03-08T02:01:55;43.37;33.86;50.39;;
72686;Laerm;61365;52.162;4.500;2024-03-08T02:04:21;43.44;32.02;49.93;;
72686;Laerm;61365;52.162;4.500;2024-03-08T02:06:47;43.42;34.16;51.78;;
72686;Laerm;61365;52.162;4.500;2024-03-08T02:09:14;43.39;32.26;50.31;;
72686;Laerm;61365;52.162;4.500;2024-03-08T02:11:41;43.35;32.34;50.14;;
72686;Laerm;61365;52.162;4.500;2024-03-08T02:14:07;43.41;31.97;52.10;;
72686;Laerm;61365;52.162;4.500;2024-03-08T02:16:33;43.38;31.80;51.24;;
72686;Laerm;61365;52.162;4.500;2024-03-08T02:19:00;43.44;33.00;52.04;;
72686;Laerm;61365;52.162;4.500;2024-03-08T02:21:26;43.42;33.87;48.60;;
72686;Laerm;61365;52.162;4.500;2024-03-08T02:23:52;43.46;31.97;49.93;;
72686;Laerm;61365;52.162;4.500;2024-03-08T02:26:19;43.41;35.77;48.78;;
72686;Laerm;61365;52.162;4.500;2024-03-08T02:28:45;43.40;35.97;49.37;;
72686;Laerm;61365;52.162;4.500;2024-03-08T02:31:12;43.37;33.51;47.92;;
72686;Laerm;61365;52.162;4.500;2024-03-08T02:33:38;43.44;32.36;50.74;;
72686;Laerm;61365;52.162;4.500;2024-03-08T02:36:05;43.46;34.86;49.71;;
72686;Laerm;61365;52.162;4.500;2024-03-08T02:38:32;43.48;32.95;52.06;;
72686;Laerm;61365;52.162;4.500;2024-03-08T02:40:58;43.50;32.85;51.57;;
72686;Laerm;61365;52.162;4.500;2024-03-08T02:43:25;43.42;33.23;50.45;;
72686;Laerm;61365;52.162;4.500;2024-03-08T02:45:51;43.64;33.03;49.77;;
72686;Laerm;61365;52.162;4.500;2024-03-08T02:48:20;43.50;32.68;50.71;;
72686;Laerm;61365;52.162;4.500;2024-03-08T02:50:47;43.45;32.69;51.25;;
72686;Laerm;61365;52.162;4.500;2024-03-08T02:53:14;43.58;34.12;51.16;;
72686;Laerm;61365;52.162;4.500;2024-03-08T02:55:40;43.63;31.99;51.55;;
72686;Laerm;61365;52.162;4.500;2024-03-08T02:58:07;43.46;33.63;49.88;;
72686;Laerm;61365;52.162;4.500;2024-03-08T03:00:37;43.42;33.79;51.60;;
72686;Laerm;61365;52.162;4.500;2024-03-08T03:03:04;43.42;32.32;51.69;;
72686;Laerm;61365;52.162;4.500;2024-03-08T03:05:32;43.40;32.05;48.86;;
72686;Laerm;61365;52.162;4.500;2024-03-08T03:07:59;43.38;34.38;49.01;;
72686;Laerm;61365;52.162;4.500;2024-03-08T03:10:25;43.32;32.33;50.57;;
72686;Laerm;61365;52.162;4.500;2024-03-08T03:12:52;43.24;32.18;51.80;;
72686;Laerm;61365;52.162;4.500;2024-03-08T03:15:18;43.44;32.62;52.35;;
72686;Laerm;61365;52.162;4.500;2024-03-08T03:17:49;43.30;33.54;51.75;;
72686;Laerm;61365;52.162;4.500;2024-03-08T03:20:18;43.22;32.77;50.50;;
72686;Laerm;61365;52.162;4.500;2024-03-08T03:22:52;43.27;32.23;51.68;;
72686;Laerm;61365;52.162;4.500;2024-03-08T03:25:19;43.34;32.64;52.09;;
72686;Laerm;61365;52.162;4.500;2024-03-08T03:27:49;43.31;32.63;50.70;;
72686;Laerm;61365;52.162;4.500;2024-03-08T03:30:15;43.36;32.30;50.45;;
72686;Laerm;61365;52.162;4.500;2024-03-08T03:32:50;43.31;35.18;50.85;;
72686;Laerm;61365;52.162;4.500;2024-03-08T03:35:17;43.24;32.61;50.07;;
72686;Laerm;61365;52.162;4.500;2024-03-08T03:37:44;43.24;34.01;51.29;;
72686;Laerm;61365;52.162;4.500;2024-03-08T03:40:17;43.22;32.89;49.14;;
72686;Laerm;61365;52.162;4.500;2024-03-08T03:42:46;43.20;32.37;50.05;;
72686;Laerm;61365;52.162;4.500;2024-03-08T03:45:12;43.35;36.12;50.85;;
72686;Laerm;61365;52.162;4.500;2024-03-08T03:47:42;43.21;32.03;50.76;;
72686;Laerm;61365;52.162;4.500;2024-03-08T03:50:09;43.26;33.80;49.35;;
72686;Laerm;61365;52.162;4.500;2024-03-08T03:52:35;43.28;33.23;50.10;;
72686;Laerm;61365;52.162;4.500;2024-03-08T03:55:02;43.13;32.37;49.44;;
72686;Laerm;61365;52.162;4.500;2024-03-08T03:57:30;43.30;32.23;48.37;;
72686;Laerm;61365;52.162;4.500;2024-03-08T03:59:57;43.20;32.61;51.69;;
72686;Laerm;61365;52.162;4.500;2024-03-08T04:02:24;43.31;32.42;51.86;;
72686;Laerm;61365;52.162;4.500;2024-03-08T04:04:52;43.30;31.95;49.65;;
72686;Laerm;61365;52.162;4.500;2024-03-08T04:07:20;43.16;32.64;51.58;;
72686;Laerm;61365;52.162;4.500;2024-03-08T04:09:47;43.15;31.96;52.23;;
72686;Laerm;61365;52.162;4.500;2024-03-08T04:12:13;43.21;32.44;49.00;;
72686;Laerm;61365;52.162;4.500;2024-03-08T04:14:42;43.48;35.08;51.73;;
72686;Laerm;61365;52.162;4.500;2024-03-08T04:17:08;43.43;33.24;48.87;;
72686;Laerm;61365;52.162;4.500;2024-03-08T04:19:35;43.45;33.20;51.92;;
72686;Laerm;61365;52.162;4.500;2024-03-08T04:22:01;43.22;32.57;50.58;;
72686;Laerm;61365;52.162;4.500;2024-03-08T04:24:28;43.18;31.73;49.41;;
72686;Laerm;61365;52.162;4.500;2024-03-08T04:26:54;43.20;32.26;49.74;;
72686;Laerm;61365;52.162;4.500;2024-03-08T04:29:20;43.27;32.69;50.60;;
72686;Laerm;61365;52.162;4.500;2024-03-08T04:31:47;43.28;32.17;50.05;;
72686;Laerm;61365;52.162;4.500;2024-03-08T04:34:13;43.35;33.56;51.87;;
72686;Laerm;61365;52.162;4.500;2024-03-08T04:36:40;43.33;32.81;49.58;;
72686;Laerm;61365;52.162;4.500;2024-03-08T04:39:06;43.16;33.32;50.27;;
72686;Laerm;61365;52.162;4.500;2024-03-08T04:41:38;43.25;33.35;50.92;;
72686;Laerm;61365;52.162;4.500;2024-03-08T04:44:05;43.42;33.30;51.26;;
72686;Laerm;61365;52.162;4.500;2024-03-08T04:46:31;43.27;32.20;51.58;;
72686;Laerm;61365;52.162;4.500;2024-03-08T04:48:57;43.42;34.29;52.12;;
72686;Laerm;61365;52.162;4.500;2024-03-08T04:51:25;43.22;33.17;49.02;;
72686;Laerm;61365;52.162;4.500;2024-03-08T04:53:51;43.36;31.99;52.12;;
72686;Laerm;61365;52.162;4.500;2024-03-08T04:56:17;43.35;33.34;50.40;;
72686;Laerm;61365;52.162;4.500;2024-03-08T04:58:45;43.35;33.56;50.16;;
72686;Laerm;61365;52.162;4.500;2024-03-08T05:01:15;43.17;32.52;51.72;;
72686;Laerm;61365;52.162;4.500;2024-03-08T05:03:41;43.35;32.68;50.32;;
72686;Laerm;61365;52.162;4.500;2024-03-08T05:06:07;43.36;33.78;50.34;;
72686;Laerm;61365;52.162;4.500;2024-03-08T05:08:34;43.44;33.91;49.82;;
72686;Laerm;61365;52.162;4.500;2024-03-08T05:11:00;43.31;32.44;51.29;;
72686;Laerm;61365;52.162;4.500;2024-03-08T05:13:30;43.31;34.47;49.19;;
72686;Laerm;61365;52.162;4.500;2024-03-08T05:15:56;43.37;32.04;50.15;;
72686;Laerm;61365;52.162;4.500;2024-03-08T05:18:24;43.33;33.50;51.93;;
72686;Laerm;61365;52.162;4.500;2024-03-08T05:20:50;43.37;32.82;49.50;;
72686;Laerm;61365;52.162;4.500;2024-03-08T05:23:17;43.23;31.88;50.52;;
72686;Laerm;61365;52.162;4.500;2024-03-08T05:25:46;43.40;32.45;52.07;;
72686;Laerm;61365;52.162;4.500;2024-03-08T05:28:14;43.33;32.73;51.49;;
72686;Laerm;61365;52.162;4.500;2024-03-08T05:30:41;43.45;32.82;52.11;;
72686;Laerm;61365;52.162;4.500;2024-03-08T05:33:07;43.41;32.75;49.70;;
72686;Laerm;61365;52.162;4.500;2024-03-08T05:35:36;43.32;32.62;51.43;;
72686;Laerm;61365;52.162;4.500;2024-03-08T05:38:02;43.31;33.24;51.45;;
72686;Laerm;61365;52.162;4.500;2024-03-08T05:40:29;43.41;34.87;50.20;;
72686;Laerm;61365;52.162;4.500;2024-03-08T05:43:00;43.37;33.55;49.54;;
72686;Laerm;61365;52.162;4.500;2024-03-08T05:45:26;43.34;31.84;52.07;;
72686;Laerm;61365;52.162;4.500;2024-03-08T05:47:53;43.21;31.99;51.88;;
72686;Laerm;61365;52.162;4.500;2024-03-08T05:50:19;43.40;32.29;50.88;;
72686;Laerm;61365;52.162;4.500;2024-03-08T05:52:45;43.26;33.51;49.57;;
72686;Laerm;61365;52.162;4.500;2024-03-08T05:55:13;43.22;32.44;51.86;;
72686;Laerm;61365;52.162;4.500;2024-03-08T05:57:41;43.38;32.79;51.92;;
72686;Laerm;61365;52.162;4.500;2024-03-08T06:00:09;43.39;32.28;51.61;;
72686;Laerm;61365;52.162;4.500;2024-03-08T06:02:41;43.39;33.14;51.65;;
72686;Laerm;61365;52.162;4.500;2024-03-08T06:05:09;43.50;32.87;48.92;;
72686;Laerm;61365;52.162;4.500;2024-03-08T06:07:36;43.39;32.63;49.62;;
72686;Laerm;61365;52.162;4.500;2024-03-08T06:10:08;43.49;32.42;51.27;;
72686;Laerm;61365;52.162;4.500;2024-03-08T06:12:36;43.43;33.02;49.28;;
72686;Laerm;61365;52.162;4.500;2024-03-08T06:15:09;43.48;32.90;49.23;;
72686;Laerm;61365;52.162;4.500;2024-03-08T06:17:36;43.45;32.44;52.42;;
72686;Laerm;61365;52.162;4.500;2024-03-08T06:20:03;43.43;32.72;50.16;;
72686;Laerm;61365;52.162;4.500;2024-03-08T06:22:39;43.47;33.58;50.12;;
72686;Laerm;61365;52.162;4.500;2024-03-08T06:25:08;43.36;33.19;50.37;;
72686;Laerm;61365;52.162;4.500;2024-03-08T06:27:34;43.47;31.90;52.07;;
72686;Laerm;61365;52.162;4.500;2024-03-08T06:30:00;43.44;32.64;50.07;;
72686;Laerm;61365;52.162;4.500;2024-03-08T06:32:30;43.30;33.36;52.40;;
72686;Laerm;61365;52.162;4.500;2024-03-08T06:34:56;43.11;32.46;52.12;;
72686;Laerm;61365;52.162;4.500;2024-03-08T06:37:22;43.29;31.89;49.88;;
72686;Laerm;61365;52.162;4.500;2024-03-08T06:39:49;43.36;33.52;50.18;;
72686;Laerm;61365;52.162;4.500;2024-03-08T06:42:17;43.27;32.57;52.42;;
72686;Laerm;61365;52.162;4.500;2024-03-08T06:44:43;43.34;32.20;48.51;;
72686;Laerm;61365;52.162;4.500;2024-03-08T06:47:15;43.33;32.52;50.46;;
72686;Laerm;61365;52.162;4.500;2024-03-08T06:49:42;43.39;34.29;48.92;;
72686;Laerm;61365;52.162;4.500;2024-03-08T06:52:11;43.35;31.97;51.54;;
72686;Laerm;61365;52.162;4.500;2024-03-08T06:54:38;43.38;34.01;50.68;;
72686;Laerm;61365;52.162;4.500;2024-03-08T06:57:04;43.33;33.24;51.84;;
72686;Laerm;61365;52.162;4.500;2024-03-08T06:59:34;43.37;35.85;49.88;;
72686;Laerm;61365;52.162;4.500;2024-03-08T07:02:02;43.30;34.86;47.16;;
72686;Laerm;61365;52.162;4.500;2024-03-08T07:04:30;43.24;31.84;49.97;;
72686;Laerm;61365;52.162;4.500;2024-03-08T07:06:57;43.33;32.14;49.88;;
72686;Laerm;61365;52.162;4.500;2024-03-08T07:09:24;43.25;32.99;48.06;;
72686;Laerm;61365;52.162;4.500;2024-03-08T07:11:51;43.21;32.09;51.91;;
72686;Laerm;61365;52.162;4.500;2024-03-08T07:14:23;43.28;33.44;48.59;;
72686;Laerm;61365;52.162;4.500;2024-03-08T07:16:50;43.41;32.66;50.07;;
72686;Laerm;61365;52.162;4.500;2024-03-08T07:19:17;43.28;32.42;49.37;;
72686;Laerm;61365;52.162;4.500;2024-03-08T07:21:43;43.33;32.40;49.11;;
72686;Laerm;61365;52.162;4.500;2024-03-08T07:24:10;43.41;32.05;49.55;;
72686;Laerm;61365;52.162;4.500;2024-03-08T07:26:43;43.43;32.35;50.29;;
72686;Laerm;61365;52.162;4.500;2024-03-08T07:29:09;43.34;31.83;51.66;;
72686;Laerm;61365;52.162;4.500;2024-03-08T07:31:35;43.51;34.10;48.87;;
72686;Laerm;61365;52.162;4.500;2024-03-08T07:34:07;43.49;33.74;47.57;;
72686;Laerm;61365;52.162;4.500;2024-03-08T07:36:34;43.42;32.84;50.28;;
72686;Laerm;61365;52.162;4.500;2024-03-08T07:39:03;43.56;33.57;50.66;;
72686;Laerm;61365;52.162;4.500;2024-03-08T07:41:40;43.42;32.54;49.96;;
72686;Laerm;61365;52.162;4.500;2024-03-08T07:44:09;43.36;33.78;51.64;;
72686;Laerm;61365;52.162;4.500;2024-03-08T07:46:35;43.44;33.06;48.22;;
72686;Laerm;61365;52.162;4.500;2024-03-08T07:49:02;43.43;32.10;50.40;;
72686;Laerm;61365;52.162;4.500;2024-03-08T07:51:29;43.41;34.18;51.51;;
72686;Laerm;61365;52.162;4.500;2024-03-08T07:53:55;43.38;32.15;49.75;;
72686;Laerm;61365;52.162;4.500;2024-03-08T07:56:21;43.37;32.14;51.87;;
72686;Laerm;61365;52.162;4.500;2024-03-08T07:58:47;43.28;32.67;49.62;;
72686;Laerm;61365;52.162;4.500;2024-03-08T08:01:17;43.20;31.67;51.76;;
72686;Laerm;61365;52.162;4.500;2024-03-08T08:03:44;43.36;34.62;48.80;;
72686;Laerm;61365;52.162;4.500;2024-03-08T08:06:11;43.21;34.32;48.48;;
72686;Laerm;61365;52.162;4.500;2024-03-08T08:08:42;43.19;31.58;52.02;;
72686;Laerm;61365;52.162;4.500;2024-03-08T08:11:08;43.23;33.75;51.56;;
72686;Laerm;61365;52.162;4.500;2024-03-08T08:13:35;43.25;32.84;51.51;;
72686;Laerm;61365;52.162;4.500;2024-03-08T08:16:03;43.20;32.70;50.08;;
72686;Laerm;61365;52.162;4.500;2024-03-08T08:18:31;43.26;34.70;50.25;;
72686;Laerm;61365;52.162;4.500;2024-03-08T08:20:59;43.40;32.66;49.61;;
72686;Laerm;61365;52.162;4.500;2024-03-08T08:23:28;43.43;35.82;47.76;;
72686;Laerm;61365;52.162;4.500;2024-03-08T08:25:55;43.30;32.91;51.30;;
72686;Laerm;61365;52.162;4.500;2024-03-08T08:28:21;43.09;33.01;49.49;;
72686;Laerm;61365;52.162;4.500;2024-03-08T08:30:48;43.24;32.86;48.91;;
72686;Laerm;61365;52.162;4.500;2024-03-08T08:33:17;43.43;32.21;50.21;;
72686;Laerm;61365;52.162;4.500;2024-03-08T08:35:43;43.43;32.08;49.78;;
72686;Laerm;61365;52.162;4.500;2024-03-08T08:38:09;43.39;32.06;50.46;;
72686;Laerm;61365;52.162;4.500;2024-03-08T08:40:35;43.14;33.65;51.53;;
72686;Laerm;61365;52.162;4.500;2024-03-08T08:43:04;43.00;32.42;51.57;;
72686;Laerm;61365;52.162;4.500;2024-03-08T08:45:31;42.88;34.31;49.57;;
72686;Laerm;61365;52.162;4.500;2024-03-08T08:47:57;43.09;34.85;49.27;;
72686;Laerm;61365;52.162;4.500;2024-03-08T08:50:26;43.10;35.72;48.20;;
72686;Laerm;61365;52.162;4.500;2024-03-08T08:52:52;43.11;35.23;47.42;;
72686;Laerm;61365;52.162;4.500;2024-03-08T08:55:19;43.15;35.99;47.74;;
72686;Laerm;61365;52.162;4.500;2024-03-08T08:57:47;43.15;35.34;49.45;;
72686;Laerm;61365;52.162;4.500;2024-03-08T09:00:19;43.04;33.91;51.39;;
72686;Laerm;61365;52.162;4.500;2024-03-08T09:02:46;43.02;33.10;51.35;;
72686;Laerm;61365;52.162;4.500;2024-03-08T09:05:13;42.95;33.42;51.73;;
72686;Laerm;61365;52.162;4.500;2024-03-08T09:07:43;42.97;34.46;46.79;;
72686;Laerm;61365;52.162;4.500;2024-03-08T09:10:10;42.70;32.14;51.62;;
72686;Laerm;61365;52.162;4.500;2024-03-08T09:12:38;42.86;34.01;49.04;;
72686;Laerm;61365;52.162;4.500;2024-03-08T09:15:05;43.07;34.21;49.22;;
72686;Laerm;61365;52.162;4.500;2024-03-08T09:17:34;42.97;33.17;48.28;;
72686;Laerm;61365;52.162;4.500;2024-03-08T09:20:00;43.19;32.20;49.53;;
72686;Laerm;61365;52.162;4.500;2024-03-08T09:22:26;43.13;35.09;47.91;;
72686;Laerm;61365;52.162;4.500;2024-03-08T09:24:52;43.29;33.94;48.51;;
72686;Laerm;61365;52.162;4.500;2024-03-08T09:27:18;43.22;33.86;51.32;;
72686;Laerm;61365;52.162;4.500;2024-03-08T09:29:45;43.22;33.75;51.44;;
72686;Laerm;61365;52.162;4.500;2024-03-08T09:32:11;43.20;34.25;47.98;;
72686;Laerm;61365;52.162;4.500;2024-03-08T09:34:37;43.04;32.53;50.10;;
72686;Laerm;61365;52.162;4.500;2024-03-08T09:37:04;43.22;33.24;51.55;;
72686;Laerm;61365;52.162;4.500;2024-03-08T09:39:31;43.16;33.95;48.83;;
72686;Laerm;61365;52.162;4.500;2024-03-08T09:41:57;43.19;32.37;48.88;;
72686;Laerm;61365;52.162;4.500;2024-03-08T09:44:23;43.25;31.94;51.37;;
72686;Laerm;61365;52.162;4.500;2024-03-08T09:46:50;43.19;32.08;50.46;;
72686;Laerm;61365;52.162;4.500;2024-03-08T09:49:19;43.08;33.07;49.54;;
72686;Laerm;61365;52.162;4.500;2024-03-08T09:51:46;43.07;33.68;49.49;;
72686;Laerm;61365;52.162;4.500;2024-03-08T09:54:13;43.17;32.04;49.47;;
72686;Laerm;61365;52.162;4.500;2024-03-08T09:56:39;43.12;33.73;51.74;;
72686;Laerm;61365;52.162;4.500;2024-03-08T09:59:07;42.97;32.92;51.50;;
72686;Laerm;61365;52.162;4.500;2024-03-08T10:01:54;42.98;33.89;51.46;;
72686;Laerm;61365;52.162;4.500;2024-03-08T10:04:24;43.16;32.38;46.71;;
72686;Laerm;61365;52.162;4.500;2024-03-08T10:06:52;42.99;34.60;46.42;;
72686;Laerm;61365;52.162;4.500;2024-03-08T10:09:18;42.99;32.05;51.66;;
72686;Laerm;61365;52.162;4.500;2024-03-08T10:11:45;42.93;34.37;47.94;;
72686;Laerm;61365;52.162;4.500;2024-03-08T10:14:11;42.93;32.33;51.53;;
72686;Laerm;61365;52.162;4.500;2024-03-08T10:16:40;43.08;33.02;49.90;;
72686;Laerm;61365;52.162;4.500;2024-03-08T10:19:06;43.00;32.73;49.53;;
72686;Laerm;61365;52.162;4.500;2024-03-08T10:21:33;42.96;33.18;48.62;;
72686;Laerm;61365;52.162;4.500;2024-03-08T10:24:02;42.90;34.04;47.64;;
72686;Laerm;61365;52.162;4.500;2024-03-08T10:26:30;43.03;35.40;50.27;;
72686;Laerm;61365;52.162;4.500;2024-03-08T10:28:56;43.03;35.76;47.77;;
72686;Laerm;61365;52.162;4.500;2024-03-08T10:31:23;43.03;33.75;47.45;;
72686;Laerm;61365;52.162;4.500;2024-03-08T10:33:49;43.05;32.44;49.20;;
72686;Laerm;61365;52.162;4.500;2024-03-08T10:36:16;43.06;34.38;47.01;;
72686;Laerm;61365;52.162;4.500;2024-03-08T10:38:43;43.08;31.89;49.52;;
72686;Laerm;61365;52.162;4.500;2024-03-08T10:41:12;43.05;36.51;49.31;;
72686;Laerm;61365;52.162;4.500;2024-03-08T10:43:57;43.05;31.93;47.71;;
72686;Laerm;61365;52.162;4.500;2024-03-08T10:48:55;43.09;32.51;49.82;;
72686;Laerm;61365;52.162;4.500;2024-03-08T10:51:25;43.06;33.13;51.33;;
72686;Laerm;61365;52.162;4.500;2024-03-08T10:53:52;43.12;32.03;50.70;;
72686;Laerm;61365;52.162;4.500;2024-03-08T10:56:18;43.07;32.90;51.54;;
72686;Laerm;61365;52.162;4.500;2024-03-08T10:58:45;43.08;32.66;51.45;;
72686;Laerm;61365;52.162;4.500;2024-03-08T11:01:12;43.08;33.29;49.28;;
72686;Laerm;61365;52.162;4.500;2024-03-08T11:06:15;43.14;34.80;48.17;;
72686;Laerm;61365;52.162;4.500;2024-03-08T11:08:42;42.90;34.29;47.61;;
72686;Laerm;61365;52.162;4.500;2024-03-08T11:11:28;42.93;33.68;50.05;;
72686;Laerm;61365;52.162;4.500;2024-03-08T11:13:58;43.28;37.07;47.22;;
72686;Laerm;61365;52.162;4.500;2024-03-08T11:18:54;42.75;33.24;48.95;;
72686;Laerm;61365;52.162;4.500;2024-03-08T11:21:23;42.69;32.39;51.46;;
72686;Laerm;61365;52.162;4.500;2024-03-08T11:24:02;42.72;33.60;49.31;;
72686;Laerm;61365;52.162;4.500;2024-03-08T11:26:29;42.70;34.96;46.04;;
72686;Laerm;61365;52.162;4.500;2024-03-08T11:32:12;43.05;32.27;51.25;;
72686;Laerm;61365;52.162;4.500;2024-03-08T11:34:48;42.82;36.59;49.19;;
72686;Laerm;61365;52.162;4.500;2024-03-08T11:37:20;42.98;33.22;51.46;;
72686;Laerm;61365;52.162;4.500;2024-03-08T11:39:54;42.78;32.43;49.50;;
72686;Laerm;61365;52.162;4.500;2024-03-08T11:42:25;42.85;35.04;47.42;;
72686;Laerm;61365;52.162;4.500;2024-03-08T11:44:54;42.74;34.44;48.45;;
72686;Laerm;61365;52.162;4.500;2024-03-08T11:47:21;42.67;34.86;47.99;;
72686;Laerm;61365;52.162;4.500;2024-03-08T11:49:47;42.72;33.18;49.38;;
72686;Laerm;61365;52.162;4.500;2024-03-08T11:52:16;42.72;32.35;49.59;;
72686;Laerm;61365;52.162;4.500;2024-03-08T11:54:47;42.67;31.86;50.40;;
72686;Laerm;61365;52.162;4.500;2024-03-08T11:57:18;42.87;33.28;51.63;;
72686;Laerm;61365;52.162;4.500;2024-03-08T11:59:54;42.60;33.30;47.57;;
72686;Laerm;61365;52.162;4.500;2024-03-08T12:02:24;42.76;33.61;46.66;;
72686;Laerm;61365;52.162;4.500;2024-03-08T12:05:03;42.63;32.77;46.05;;
72686;Laerm;61365;52.162;4.500;2024-03-08T12:07:30;42.65;34.04;47.07;;
72686;Laerm;61365;52.162;4.500;2024-03-08T12:10:20;42.71;34.30;51.17;;
72686;Laerm;61365;52.162;4.500;2024-03-08T12:12:49;42.70;34.27;47.06;;
72686;Laerm;61365;52.162;4.500;2024-03-08T12:15:18;42.66;33.04;49.15;;
72686;Laerm;61365;52.162;4.500;2024-03-08T12:17:49;42.71;32.32;45.66;;
72686;Laerm;61365;52.162;4.500;2024-03-08T12:20:26;42.68;32.49;49.52;;
72686;Laerm;61365;52.162;4.500;2024-03-08T12:22:55;42.77;31.96;49.65;;
72686;Laerm;61365;52.162;4.500;2024-03-08T12:25:31;42.87;36.01;46.86;;
72686;Laerm;61365;52.162;4.500;2024-03-08T12:28:10;42.82;35.55;49.45;;
72686;Laerm;61365;52.162;4.500;2024-03-08T12:30:46;42.84;31.82;49.75;;
72686;Laerm;61365;52.162;4.500;2024-03-08T12:33:13;42.86;32.15;49.88;;
72686;Laerm;61365;52.162;4.500;2024-03-08T12:35:39;42.89;33.37;51.05;;
72686;Laerm;61365;52.162;4.500;2024-03-08T12:38:06;42.87;32.09;49.59;;
72686;Laerm;61365;52.162;4.500;2024-03-08T12:40:34;42.78;33.49;45.62;;
72686;Laerm;61365;52.162;4.500;2024-03-08T12:43:06;42.81;33.43;51.30;;
72686;Laerm;61365;52.162;4.500;2024-03-08T12:45:32;42.87;33.03;48.99;;
72686;Laerm;61365;52.162;4.500;2024-03-08T12:47:58;42.72;34.36;49.35;;
72686;Laerm;61365;52.162;4.500;2024-03-08T12:50:25;42.72;33.54;45.82;;
72686;Laerm;61365;52.162;4.500;2024-03-08T12:52:51;42.73;32.73;49.51;;
72686;Laerm;61365;52.162;4.500;2024-03-08T12:55:21;42.77;33.36;49.21;;
72686;Laerm;61365;52.162;4.500;2024-03-08T12:57:48;42.87;34.70;49.22;;
72686;Laerm;61365;52.162;4.500;2024-03-08T13:00:15;42.93;34.58;51.19;;
72686;Laerm;61365;52.162;4.500;2024-03-08T13:02:49;42.99;32.70;51.43;;
72686;Laerm;61365;52.162;4.500;2024-03-08T13:05:17;42.70;32.60;51.53;;
72686;Laerm;61365;52.162;4.500;2024-03-08T13:07:44;42.90;32.58;51.03;;
72686;Laerm;61365;52.162;4.500;2024-03-08T13:10:13;42.93;34.61;48.07;;
72686;Laerm;61365;52.162;4.500;2024-03-08T13:12:43;42.81;35.74;47.59;;
72686;Laerm;61365;52.162;4.500;2024-03-08T13:15:09;42.72;32.94;46.48;;
72686;Laerm;61365;52.162;4.500;2024-03-08T13:17:47;43.00;36.01;46.56;;
72686;Laerm;61365;52.162;4.500;2024-03-08T13:20:14;42.86;35.15;48.30;;
72686;Laerm;61365;52.162;4.500;2024-03-08T13:22:47;42.87;34.11;49.48;;
72686;Laerm;61365;52.162;4.500;2024-03-08T13:25:13;42.69;32.70;49.75;;
72686;Laerm;61365;52.162;4.500;2024-03-08T13:27:40;42.71;35.87;46.26;;
72686;Laerm;61365;52.162;4.500;2024-03-08T13:30:12;42.77;32.25;50.30;;
72686;Laerm;61365;52.162;4.500;2024-03-08T13:32:40;42.88;33.10;46.86;;
72686;Laerm;61365;52.162;4.500;2024-03-08T13:35:09;42.92;32.83;49.61;;
72686;Laerm;61365;52.162;4.500;2024-03-08T13:37:42;42.65;32.61;49.52;;
72686;Laerm;61365;52.162;4.500;2024-03-08T13:40:09;42.69;33.11;49.43;;
72686;Laerm;61365;52.162;4.500;2024-03-08T13:42:44;42.96;34.54;47.47;;
72686;Laerm;61365;52.162;4.500;2024-03-08T13:45:11;42.78;34.44;49.08;;
72686;Laerm;61365;52.162;4.500;2024-03-08T13:47:38;42.79;33.75;49.63;;
72686;Laerm;61365;52.162;4.500;2024-03-08T13:50:06;42.81;32.94;46.34;;
72686;Laerm;61365;52.162;4.500;2024-03-08T13:52:33;42.78;34.90;46.07;;
72686;Laerm;61365;52.162;4.500;2024-03-08T13:55:03;42.77;33.13;51.70;;
72686;Laerm;61365;52.162;4.500;2024-03-08T13:57:31;42.68;33.92;51.15;;
72686;Laerm;61365;52.162;4.500;2024-03-08T13:59:58;42.70;33.44;51.08;;